sensor_id;sensor_type;location;lat;lon;timestamp;temperature;humidity
65291;SHT30;51893;59.754;10.110;2022-08-19T00:00:09;17.38;86.67
65291;SHT30;51893;59.754;10.110;2022-08-19T00:03:01;17.41;86.74
65291;SHT30;51893;59.754;10.110;2022-08-19T00:05:30;17.43;86.78
65291;SHT30;51893;59.754;10.110;2022-08-19T00:07:59;17.42;86.91
65291;SHT30;51893;59.754;10.110;2022-08-19T00:10:27;17.44;86.80
65291;SHT30;51893;59.754;10.110;2022-08-19T00:12:55;17.44;86.86
65291;SHT30;51893;59.754;10.110;2022-08-19T00:15:23;17.46;86.90
65291;SHT30;51893;59.754;10.110;2022-08-19T00:17:51;17.51;86.88
65291;SHT30;51893;59.754;10.110;2022-08-19T00:20:19;17.54;86.82
65291;SHT30;51893;59.754;10.110;2022-08-19T00:22:49;17.60;86.61
65291;SHT30;51893;59.754;10.110;2022-08-19T00:25:17;17.55;86.66
65291;SHT30;51893;59.754;10.110;2022-08-19T00:27:56;17.57;86.75
65291;SHT30;51893;59.754;10.110;2022-08-19T00:30:24;17.52;86.86
65291;SHT30;51893;59.754;10.110;2022-08-19T00:32:57;17.52;87.04
65291;SHT30;51893;59.754;10.110;2022-08-19T00:35:26;17.56;86.94
65291;SHT30;51893;59.754;10.110;2022-08-19T00:37:54;17.59;86.87
65291;SHT30;51893;59.754;10.110;2022-08-19T00:40:23;17.60;86.80
65291;SHT30;51893;59.754;10.110;2022-08-19T00:42:52;17.60;86.86
65291;SHT30;51893;59.754;10.110;2022-08-19T00:45:23;17.63;86.72
65291;SHT30;51893;59.754;10.110;2022-08-19T00:47:53;17.66;86.72
65291;SHT30;51893;59.754;10.110;2022-08-19T00:50:21;17.67;86.71
65291;SHT30;51893;59.754;10.110;2022-08-19T00:52:50;17.65;86.85
65291;SHT30;51893;59.754;10.110;2022-08-19T00:55:21;17.65;86.90
65291;SHT30;51893;59.754;10.110;2022-08-19T00:57:55;17.67;86.88
65291;SHT30;51893;59.754;10.110;2022-08-19T01:00:31;17.69;86.83
65291;SHT30;51893;59.754;10.110;2022-08-19T01:03:07;17.71;86.94
65291;SHT30;51893;59.754;10.110;2022-08-19T01:05:41;17.66;87.09
65291;SHT30;51893;59.754;10.110;2022-08-19T01:08:11;17.61;87.20
65291;SHT30;51893;59.754;10.110;2022-08-19T01:10:43;17.58;87.19
65291;SHT30;51893;59.754;10.110;2022-08-19T01:13:19;17.51;87.20
65291;SHT30;51893;59.754;10.110;2022-08-19T01:15:57;17.51;87.18
65291;SHT30;51893;59.754;10.110;2022-08-19T01:18:31;17.50;87.10
65291;SHT30;51893;59.754;10.110;2022-08-19T01:21:07;17.49;86.98
65291;SHT30;51893;59.754;10.110;2022-08-19T01:23:44;17.52;86.77
65291;SHT30;51893;59.754;10.110;2022-08-19T01:26:13;17.51;86.55
65291;SHT30;51893;59.754;10.110;2022-08-19T01:28:46;17.45;86.32
65291;SHT30;51893;59.754;10.110;2022-08-19T01:31:21;17.44;86.13
65291;SHT30;51893;59.754;10.110;2022-08-19T01:33:54;17.43;85.86
65291;SHT30;51893;59.754;10.110;2022-08-19T01:36:29;17.43;85.59
65291;SHT30;51893;59.754;10.110;2022-08-19T01:39:01;17.39;85.44
65291;SHT30;51893;59.754;10.110;2022-08-19T01:41:33;17.34;85.56
65291;SHT30;51893;59.754;10.110;2022-08-19T01:44:03;17.22;85.96
65291;SHT30;51893;59.754;10.110;2022-08-19T01:46:45;17.11;86.34
65291;SHT30;51893;59.754;10.110;2022-08-19T01:49:16;17.05;86.69
65291;SHT30;51893;59.754;10.110;2022-08-19T01:51:48;17.01;86.95
65291;SHT30;51893;59.754;10.110;2022-08-19T01:54:18;16.97;87.04
65291;SHT30;51893;59.754;10.110;2022-08-19T01:57:06;16.94;87.16
65291;SHT30;51893;59.754;10.110;2022-08-19T01:59:39;16.98;87.12
65291;SHT30;51893;59.754;10.110;2022-08-19T02:02:09;17.05;86.83
65291;SHT30;51893;59.754;10.110;2022-08-19T02:04:37;17.02;86.56
65291;SHT30;51893;59.754;10.110;2022-08-19T02:07:06;17.00;86.23
65291;SHT30;51893;59.754;10.110;2022-08-19T02:09:35;16.95;86.04
65291;SHT30;51893;59.754;10.110;2022-08-19T02:12:04;16.97;85.93
65291;SHT30;51893;59.754;10.110;2022-08-19T02:14:35;17.00;85.78
65291;SHT30;51893;59.754;10.110;2022-08-19T02:17:04;17.02;85.44
65291;SHT30;51893;59.754;10.110;2022-08-19T02:19:32;16.99;85.35
65291;SHT30;51893;59.754;10.110;2022-08-19T02:21:59;16.94;85.40
65291;SHT30;51893;59.754;10.110;2022-08-19T02:24:28;16.93;85.20
65291;SHT30;51893;59.754;10.110;2022-08-19T02:26:55;16.92;85.01
65291;SHT30;51893;59.754;10.110;2022-08-19T02:29:26;16.90;84.85
65291;SHT30;51893;59.754;10.110;2022-08-19T02:31:53;16.85;84.79
65291;SHT30;51893;59.754;10.110;2022-08-19T02:34:21;16.75;84.98
65291;SHT30;51893;59.754;10.110;2022-08-19T02:36:49;16.66;85.27
65291;SHT30;51893;59.754;10.110;2022-08-19T02:39:19;16.64;85.26
65291;SHT30;51893;59.754;10.110;2022-08-19T02:41:46;16.66;85.10
65291;SHT30;51893;59.754;10.110;2022-08-19T02:44:14;16.66;84.84
65291;SHT30;51893;59.754;10.110;2022-08-19T02:46:57;16.68;84.80
65291;SHT30;51893;59.754;10.110;2022-08-19T02:49:26;16.70;84.71
65291;SHT30;51893;59.754;10.110;2022-08-19T02:52:01;16.67;84.39
65291;SHT30;51893;59.754;10.110;2022-08-19T02:54:30;16.61;84.36
65291;SHT30;51893;59.754;10.110;2022-08-19T02:56:58;16.58;84.48
65291;SHT30;51893;59.754;10.110;2022-08-19T02:59:29;16.50;84.68
65291;SHT30;51893;59.754;10.110;2022-08-19T03:01:58;16.45;84.66
65291;SHT30;51893;59.754;10.110;2022-08-19T03:04:26;16.42;84.50
65291;SHT30;51893;59.754;10.110;2022-08-19T03:06:54;16.36;85.08
65291;SHT30;51893;59.754;10.110;2022-08-19T03:09:28;16.29;85.18
65291;SHT30;51893;59.754;10.110;2022-08-19T03:11:57;16.23;85.14
65291;SHT30;51893;59.754;10.110;2022-08-19T03:14:25;16.15;85.30
65291;SHT30;51893;59.754;10.110;2022-08-19T03:16:52;16.05;85.39
65291;SHT30;51893;59.754;10.110;2022-08-19T03:19:20;16.02;85.52
65291;SHT30;51893;59.754;10.110;2022-08-19T03:21:51;15.95;85.25
65291;SHT30;51893;59.754;10.110;2022-08-19T03:24:20;15.92;85.18
65291;SHT30;51893;59.754;10.110;2022-08-19T03:26:48;15.87;85.33
65291;SHT30;51893;59.754;10.110;2022-08-19T03:29:25;15.76;85.43
65291;SHT30;51893;59.754;10.110;2022-08-19T03:32:00;15.73;85.33
65291;SHT30;51893;59.754;10.110;2022-08-19T03:34:32;15.71;85.41
65291;SHT30;51893;59.754;10.110;2022-08-19T03:37:07;15.71;85.10
65291;SHT30;51893;59.754;10.110;2022-08-19T03:39:41;15.68;85.00
65291;SHT30;51893;59.754;10.110;2022-08-19T03:42:10;15.68;84.94
65291;SHT30;51893;59.754;10.110;2022-08-19T03:44:59;15.64;84.83
65291;SHT30;51893;59.754;10.110;2022-08-19T03:47:27;15.61;84.78
65291;SHT30;51893;59.754;10.110;2022-08-19T03:49:55;15.50;84.86
65291;SHT30;51893;59.754;10.110;2022-08-19T03:52:22;15.45;85.00
65291;SHT30;51893;59.754;10.110;2022-08-19T03:54:50;15.41;85.09
65291;SHT30;51893;59.754;10.110;2022-08-19T03:57:19;15.41;85.12
65291;SHT30;51893;59.754;10.110;2022-08-19T03:59:50;15.38;84.94
65291;SHT30;51893;59.754;10.110;2022-08-19T04:02:18;15.42;85.08
65291;SHT30;51893;59.754;10.110;2022-08-19T04:04:45;15.45;85.16
65291;SHT30;51893;59.754;10.110;2022-08-19T04:07:13;15.46;85.10
65291;SHT30;51893;59.754;10.110;2022-08-19T04:09:43;15.47;85.10
65291;SHT30;51893;59.754;10.110;2022-08-19T04:12:11;15.49;85.50
65291;SHT30;51893;59.754;10.110;2022-08-19T04:14:39;15.49;85.36
65291;SHT30;51893;59.754;10.110;2022-08-19T04:17:07;15.44;85.10
65291;SHT30;51893;59.754;10.110;2022-08-19T04:19:35;15.31;84.75
65291;SHT30;51893;59.754;10.110;2022-08-19T04:22:04;15.19;84.86
65291;SHT30;51893;59.754;10.110;2022-08-19T04:24:33;15.20;85.01
65291;SHT30;51893;59.754;10.110;2022-08-19T04:27:02;15.10;84.96
65291;SHT30;51893;59.754;10.110;2022-08-19T04:29:30;14.96;85.23
65291;SHT30;51893;59.754;10.110;2022-08-19T04:31:58;14.90;85.47
65291;SHT30;51893;59.754;10.110;2022-08-19T04:34:36;14.94;85.69
65291;SHT30;51893;59.754;10.110;2022-08-19T04:37:25;14.98;85.91
65291;SHT30;51893;59.754;10.110;2022-08-19T04:40:02;14.99;85.88
65291;SHT30;51893;59.754;10.110;2022-08-19T04:42:52;14.98;85.80
65291;SHT30;51893;59.754;10.110;2022-08-19T04:45:21;14.93;86.11
65291;SHT30;51893;59.754;10.110;2022-08-19T04:47:49;14.94;86.00
65291;SHT30;51893;59.754;10.110;2022-08-19T04:50:46;14.95;85.79
65291;SHT30;51893;59.754;10.110;2022-08-19T04:53:15;14.89;85.73
65291;SHT30;51893;59.754;10.110;2022-08-19T04:55:43;14.88;85.74
65291;SHT30;51893;59.754;10.110;2022-08-19T04:58:11;14.88;85.74
65291;SHT30;51893;59.754;10.110;2022-08-19T05:00:39;14.90;85.74
65291;SHT30;51893;59.754;10.110;2022-08-19T05:03:07;14.93;85.73
65291;SHT30;51893;59.754;10.110;2022-08-19T05:05:41;14.97;85.94
65291;SHT30;51893;59.754;10.110;2022-08-19T05:08:12;15.03;86.38
65291;SHT30;51893;59.754;10.110;2022-08-19T05:10:58;15.05;86.40
65291;SHT30;51893;59.754;10.110;2022-08-19T05:13:26;15.06;86.52
65291;SHT30;51893;59.754;10.110;2022-08-19T05:15:55;15.10;86.43
65291;SHT30;51893;59.754;10.110;2022-08-19T05:18:25;15.14;86.33
65291;SHT30;51893;59.754;10.110;2022-08-19T05:21:13;15.14;86.38
65291;SHT30;51893;59.754;10.110;2022-08-19T05:24:04;15.18;86.38
65291;SHT30;51893;59.754;10.110;2022-08-19T05:26:36;15.18;86.41
65291;SHT30;51893;59.754;10.110;2022-08-19T05:29:20;15.22;86.43
65291;SHT30;51893;59.754;10.110;2022-08-19T05:31:49;15.23;86.32
65291;SHT30;51893;59.754;10.110;2022-08-19T05:34:20;15.28;86.29
65291;SHT30;51893;59.754;10.110;2022-08-19T05:36:55;15.40;86.39
65291;SHT30;51893;59.754;10.110;2022-08-19T05:39:26;15.44;86.57
65291;SHT30;51893;59.754;10.110;2022-08-19T05:41:59;15.48;86.68
65291;SHT30;51893;59.754;10.110;2022-08-19T05:44:35;15.56;86.82
65291;SHT30;51893;59.754;10.110;2022-08-19T05:47:12;15.67;86.71
65291;SHT30;51893;59.754;10.110;2022-08-19T05:49:42;15.73;86.75
65291;SHT30;51893;59.754;10.110;2022-08-19T05:52:11;15.76;86.74
65291;SHT30;51893;59.754;10.110;2022-08-19T05:54:45;15.84;86.79
65291;SHT30;51893;59.754;10.110;2022-08-19T05:57:18;15.92;86.71
65291;SHT30;51893;59.754;10.110;2022-08-19T05:59:46;15.91;86.81
65291;SHT30;51893;59.754;10.110;2022-08-19T06:02:19;15.91;86.67
65291;SHT30;51893;59.754;10.110;2022-08-19T06:04:47;15.98;86.60
65291;SHT30;51893;59.754;10.110;2022-08-19T06:07:15;16.07;86.55
65291;SHT30;51893;59.754;10.110;2022-08-19T06:09:44;16.14;86.39
65291;SHT30;51893;59.754;10.110;2022-08-19T06:12:28;16.16;86.21
65291;SHT30;51893;59.754;10.110;2022-08-19T06:15:00;16.21;86.20
65291;SHT30;51893;59.754;10.110;2022-08-19T06:17:33;16.23;86.29
65291;SHT30;51893;59.754;10.110;2022-08-19T06:20:03;16.28;86.40
65291;SHT30;51893;59.754;10.110;2022-08-19T06:22:41;16.32;86.26
65291;SHT30;51893;59.754;10.110;2022-08-19T06:25:12;16.33;85.84
65291;SHT30;51893;59.754;10.110;2022-08-19T06:27:42;16.36;85.44
65291;SHT30;51893;59.754;10.110;2022-08-19T06:30:31;16.44;85.33
65291;SHT30;51893;59.754;10.110;2022-08-19T06:32:59;16.44;85.00
65291;SHT30;51893;59.754;10.110;2022-08-19T06:35:27;16.46;84.72
65291;SHT30;51893;59.754;10.110;2022-08-19T06:37:56;16.44;84.44
65291;SHT30;51893;59.754;10.110;2022-08-19T06:40:24;16.45;84.42
65291;SHT30;51893;59.754;10.110;2022-08-19T06:42:54;16.50;84.41
65291;SHT30;51893;59.754;10.110;2022-08-19T06:45:23;16.57;84.44
65291;SHT30;51893;59.754;10.110;2022-08-19T06:48:02;16.63;84.32
65291;SHT30;51893;59.754;10.110;2022-08-19T06:50:30;16.67;84.34
65291;SHT30;51893;59.754;10.110;2022-08-19T06:52:58;16.69;84.29
65291;SHT30;51893;59.754;10.110;2022-08-19T06:55:30;16.70;83.92
65291;SHT30;51893;59.754;10.110;2022-08-19T06:58:03;16.77;84.00
65291;SHT30;51893;59.754;10.110;2022-08-19T07:00:31;16.83;83.80
65291;SHT30;51893;59.754;10.110;2022-08-19T07:03:01;16.84;83.67
65291;SHT30;51893;59.754;10.110;2022-08-19T07:05:40;16.84;83.72
65291;SHT30;51893;59.754;10.110;2022-08-19T07:08:12;16.79;83.64
65291;SHT30;51893;59.754;10.110;2022-08-19T07:10:44;16.75;83.60
65291;SHT30;51893;59.754;10.110;2022-08-19T07:13:12;16.75;83.58
65291;SHT30;51893;59.754;10.110;2022-08-19T07:15:41;16.73;83.35
65291;SHT30;51893;59.754;10.110;2022-08-19T07:18:09;16.74;83.09
65291;SHT30;51893;59.754;10.110;2022-08-19T07:20:39;16.72;82.89
65291;SHT30;51893;59.754;10.110;2022-08-19T07:23:09;16.75;83.14
65291;SHT30;51893;59.754;10.110;2022-08-19T07:25:43;16.84;83.38
65291;SHT30;51893;59.754;10.110;2022-08-19T07:28:19;16.89;83.15
65291;SHT30;51893;59.754;10.110;2022-08-19T07:30:51;16.95;83.42
65291;SHT30;51893;59.754;10.110;2022-08-19T07:33:21;17.02;83.45
65291;SHT30;51893;59.754;10.110;2022-08-19T07:35:49;17.11;82.95
65291;SHT30;51893;59.754;10.110;2022-08-19T07:38:17;17.20;82.61
65291;SHT30;51893;59.754;10.110;2022-08-19T07:40:45;17.23;82.23
65291;SHT30;51893;59.754;10.110;2022-08-19T07:43:13;17.24;82.15
65291;SHT30;51893;59.754;10.110;2022-08-19T07:45:44;17.27;82.52
65291;SHT30;51893;59.754;10.110;2022-08-19T07:48:14;17.32;82.16
65291;SHT30;51893;59.754;10.110;2022-08-19T07:50:42;17.33;82.08
65291;SHT30;51893;59.754;10.110;2022-08-19T07:53:10;17.36;81.89
65291;SHT30;51893;59.754;10.110;2022-08-19T07:55:39;17.40;81.75
65291;SHT30;51893;59.754;10.110;2022-08-19T07:58:11;17.45;81.57
65291;SHT30;51893;59.754;10.110;2022-08-19T08:00:42;17.49;81.40
65291;SHT30;51893;59.754;10.110;2022-08-19T08:03:14;17.52;81.33
65291;SHT30;51893;59.754;10.110;2022-08-19T08:05:45;17.69;81.33
65291;SHT30;51893;59.754;10.110;2022-08-19T08:08:33;17.75;80.87
65291;SHT30;51893;59.754;10.110;2022-08-19T08:11:18;17.80;80.99
65291;SHT30;51893;59.754;10.110;2022-08-19T08:13:50;17.90;81.26
65291;SHT30;51893;59.754;10.110;2022-08-19T08:16:28;18.05;80.89
65291;SHT30;51893;59.754;10.110;2022-08-19T08:18:58;18.14;80.80
65291;SHT30;51893;59.754;10.110;2022-08-19T08:21:27;18.26;80.33
65291;SHT30;51893;59.754;10.110;2022-08-19T08:23:55;18.40;80.33
65291;SHT30;51893;59.754;10.110;2022-08-19T08:26:23;18.51;79.92
65291;SHT30;51893;59.754;10.110;2022-08-19T08:28:52;18.66;80.03
65291;SHT30;51893;59.754;10.110;2022-08-19T08:31:21;18.80;79.68
65291;SHT30;51893;59.754;10.110;2022-08-19T08:33:49;18.98;79.57
65291;SHT30;51893;59.754;10.110;2022-08-19T08:36:17;19.09;78.96
65291;SHT30;51893;59.754;10.110;2022-08-19T08:38:45;19.14;78.11
65291;SHT30;51893;59.754;10.110;2022-08-19T08:44:00;19.23;76.14
65291;SHT30;51893;59.754;10.110;2022-08-19T08:46:39;19.32;76.25
65291;SHT30;51893;59.754;10.110;2022-08-19T08:52:03;19.48;76.47
65291;SHT30;51893;59.754;10.110;2022-08-19T08:54:38;19.55;76.34
65291;SHT30;51893;59.754;10.110;2022-08-19T09:00:39;19.63;76.04
65291;SHT30;51893;59.754;10.110;2022-08-19T09:03:23;19.64;75.53
65291;SHT30;51893;59.754;10.110;2022-08-19T09:06:10;19.68;75.51
65291;SHT30;51893;59.754;10.110;2022-08-19T09:08:49;19.74;75.97
65291;SHT30;51893;59.754;10.110;2022-08-19T09:17:19;19.91;74.97
65291;SHT30;51893;59.754;10.110;2022-08-19T09:20:14;20.02;75.24
65291;SHT30;51893;59.754;10.110;2022-08-19T09:22:52;20.12;74.52
65291;SHT30;51893;59.754;10.110;2022-08-19T09:25:21;20.20;74.45
65291;SHT30;51893;59.754;10.110;2022-08-19T09:27:55;20.36;74.65
65291;SHT30;51893;59.754;10.110;2022-08-19T09:30:31;20.47;73.55
65291;SHT30;51893;59.754;10.110;2022-08-19T09:33:06;20.53;73.19
65291;SHT30;51893;59.754;10.110;2022-08-19T09:35:35;20.66;73.86
65291;SHT30;51893;59.754;10.110;2022-08-19T09:38:20;20.82;73.61
65291;SHT30;51893;59.754;10.110;2022-08-19T09:40:48;20.85;72.80
65291;SHT30;51893;59.754;10.110;2022-08-19T09:43:17;20.90;73.24
65291;SHT30;51893;59.754;10.110;2022-08-19T09:46:00;20.97;72.90
65291;SHT30;51893;59.754;10.110;2022-08-19T09:48:33;20.92;71.99
65291;SHT30;51893;59.754;10.110;2022-08-19T09:51:07;20.94;72.27
65291;SHT30;51893;59.754;10.110;2022-08-19T09:53:38;20.97;71.94
65291;SHT30;51893;59.754;10.110;2022-08-19T09:56:06;21.03;72.36
65291;SHT30;51893;59.754;10.110;2022-08-19T09:58:35;21.14;72.31
65291;SHT30;51893;59.754;10.110;2022-08-19T10:01:04;21.23;71.89
65291;SHT30;51893;59.754;10.110;2022-08-19T10:03:35;21.29;71.33
65291;SHT30;51893;59.754;10.110;2022-08-19T10:06:04;21.33;71.31
65291;SHT30;51893;59.754;10.110;2022-08-19T10:08:43;21.37;71.15
65291;SHT30;51893;59.754;10.110;2022-08-19T10:11:17;21.41;71.18
65291;SHT30;51893;59.754;10.110;2022-08-19T10:14:01;21.43;70.56
65291;SHT30;51893;59.754;10.110;2022-08-19T10:16:33;21.42;70.35
65291;SHT30;51893;59.754;10.110;2022-08-19T10:19:06;21.40;69.88
65291;SHT30;51893;59.754;10.110;2022-08-19T10:21:34;21.39;69.67
65291;SHT30;51893;59.754;10.110;2022-08-19T10:24:03;21.43;70.15
65291;SHT30;51893;59.754;10.110;2022-08-19T10:26:33;21.47;70.58
65291;SHT30;51893;59.754;10.110;2022-08-19T10:29:04;21.51;70.40
65291;SHT30;51893;59.754;10.110;2022-08-19T10:31:35;21.55;70.42
65291;SHT30;51893;59.754;10.110;2022-08-19T10:34:24;21.57;69.93
65291;SHT30;51893;59.754;10.110;2022-08-19T10:36:55;21.57;69.91
65291;SHT30;51893;59.754;10.110;2022-08-19T10:39:31;21.60;69.79
65291;SHT30;51893;59.754;10.110;2022-08-19T10:42:10;21.63;69.76
65291;SHT30;51893;59.754;10.110;2022-08-19T10:44:40;21.65;69.76
65291;SHT30;51893;59.754;10.110;2022-08-19T10:47:09;21.66;69.31
65291;SHT30;51893;59.754;10.110;2022-08-19T10:49:53;21.63;68.64
65291;SHT30;51893;59.754;10.110;2022-08-19T10:52:42;21.65;69.10
65291;SHT30;51893;59.754;10.110;2022-08-19T10:55:18;21.65;68.99
65291;SHT30;51893;59.754;10.110;2022-08-19T10:58:12;21.69;68.67
65291;SHT30;51893;59.754;10.110;2022-08-19T11:00:43;21.73;68.40
65291;SHT30;51893;59.754;10.110;2022-08-19T11:03:23;21.82;68.56
65291;SHT30;51893;59.754;10.110;2022-08-19T11:06:03;21.87;67.72
65291;SHT30;51893;59.754;10.110;2022-08-19T11:08:35;21.92;67.57
65291;SHT30;51893;59.754;10.110;2022-08-19T11:11:06;21.95;67.52
65291;SHT30;51893;59.754;10.110;2022-08-19T11:13:38;21.93;66.75
65291;SHT30;51893;59.754;10.110;2022-08-19T11:16:13;21.93;66.77
65291;SHT30;51893;59.754;10.110;2022-08-19T11:18:48;21.92;67.03
65291;SHT30;51893;59.754;10.110;2022-08-19T11:24:09;21.89;66.79
65291;SHT30;51893;59.754;10.110;2022-08-19T11:26:44;21.89;66.60
65291;SHT30;51893;59.754;10.110;2022-08-19T11:29:12;21.89;66.49
65291;SHT30;51893;59.754;10.110;2022-08-19T11:31:42;21.82;66.34
65291;SHT30;51893;59.754;10.110;2022-08-19T11:34:15;21.81;66.74
65291;SHT30;51893;59.754;10.110;2022-08-19T11:36:50;21.85;66.77
65291;SHT30;51893;59.754;10.110;2022-08-19T11:39:20;21.87;65.96
65291;SHT30;51893;59.754;10.110;2022-08-19T11:41:49;21.92;65.80
65291;SHT30;51893;59.754;10.110;2022-08-19T11:44:19;21.97;65.31
65291;SHT30;51893;59.754;10.110;2022-08-19T11:46:47;22.02;65.29
65291;SHT30;51893;59.754;10.110;2022-08-19T11:49:16;22.06;65.08
65291;SHT30;51893;59.754;10.110;2022-08-19T11:51:46;22.06;64.85
65291;SHT30;51893;59.754;10.110;2022-08-19T11:54:17;22.03;64.26
65291;SHT30;51893;59.754;10.110;2022-08-19T11:56:45;22.04;64.40
65291;SHT30;51893;59.754;10.110;2022-08-19T11:59:15;22.07;64.69
65291;SHT30;51893;59.754;10.110;2022-08-19T12:01:43;22.07;64.14
65291;SHT30;51893;59.754;10.110;2022-08-19T12:04:11;22.10;64.18
65291;SHT30;51893;59.754;10.110;2022-08-19T12:06:40;22.16;64.02
65291;SHT30;51893;59.754;10.110;2022-08-19T12:09:08;22.19;63.65
65291;SHT30;51893;59.754;10.110;2022-08-19T12:11:38;22.22;63.99
65291;SHT30;51893;59.754;10.110;2022-08-19T12:14:09;22.30;64.05
65291;SHT30;51893;59.754;10.110;2022-08-19T12:16:43;22.35;63.72
65291;SHT30;51893;59.754;10.110;2022-08-19T12:19:18;22.38;63.81
65291;SHT30;51893;59.754;10.110;2022-08-19T12:21:49;22.44;63.76
65291;SHT30;51893;59.754;10.110;2022-08-19T12:24:20;22.53;63.95
65291;SHT30;51893;59.754;10.110;2022-08-19T12:26:50;22.55;63.01
65291;SHT30;51893;59.754;10.110;2022-08-19T12:29:20;22.61;63.76
65291;SHT30;51893;59.754;10.110;2022-08-19T12:31:57;22.71;63.57
65291;SHT30;51893;59.754;10.110;2022-08-19T12:34:31;22.76;63.49
65291;SHT30;51893;59.754;10.110;2022-08-19T12:37:01;22.78;63.75
65291;SHT30;51893;59.754;10.110;2022-08-19T12:39:36;22.75;63.63
65291;SHT30;51893;59.754;10.110;2022-08-19T12:42:10;22.73;63.06
65291;SHT30;51893;59.754;10.110;2022-08-19T12:44:41;22.73;63.36
65291;SHT30;51893;59.754;10.110;2022-08-19T12:47:11;22.75;63.40
65291;SHT30;51893;59.754;10.110;2022-08-19T12:49:41;22.77;62.53
65291;SHT30;51893;59.754;10.110;2022-08-19T12:52:22;22.74;62.19
65291;SHT30;51893;59.754;10.110;2022-08-19T12:54:53;22.77;62.81
65291;SHT30;51893;59.754;10.110;2022-08-19T12:57:24;22.79;62.66
65291;SHT30;51893;59.754;10.110;2022-08-19T13:00:04;22.75;62.70
65291;SHT30;51893;59.754;10.110;2022-08-19T13:02:38;22.75;62.68
65291;SHT30;51893;59.754;10.110;2022-08-19T13:05:09;22.77;62.81
65291;SHT30;51893;59.754;10.110;2022-08-19T13:07:41;22.73;61.84
65291;SHT30;51893;59.754;10.110;2022-08-19T13:10:15;22.78;62.65
65291;SHT30;51893;59.754;10.110;2022-08-19T13:12:49;22.89;62.56
65291;SHT30;51893;59.754;10.110;2022-08-19T13:15:19;23.07;62.65
65291;SHT30;51893;59.754;10.110;2022-08-19T13:17:51;23.22;62.76
65291;SHT30;51893;59.754;10.110;2022-08-19T13:20:23;23.28;61.98
65291;SHT30;51893;59.754;10.110;2022-08-19T13:22:53;23.30;62.24
65291;SHT30;51893;59.754;10.110;2022-08-19T13:25:22;23.33;61.81
65291;SHT30;51893;59.754;10.110;2022-08-19T13:27:50;23.30;61.16
65291;SHT30;51893;59.754;10.110;2022-08-19T13:30:19;23.31;61.71
65291;SHT30;51893;59.754;10.110;2022-08-19T13:33:07;23.47;61.96
65291;SHT30;51893;59.754;10.110;2022-08-19T13:35:56;23.54;61.45
65291;SHT30;51893;59.754;10.110;2022-08-19T13:38:27;23.61;61.70
65291;SHT30;51893;59.754;10.110;2022-08-19T13:40:57;23.70;61.78
65291;SHT30;51893;59.754;10.110;2022-08-19T13:43:39;23.77;61.62
65291;SHT30;51893;59.754;10.110;2022-08-19T13:46:11;23.85;61.71
65291;SHT30;51893;59.754;10.110;2022-08-19T13:48:41;23.83;61.13
65291;SHT30;51893;59.754;10.110;2022-08-19T13:51:10;23.80;61.06
65291;SHT30;51893;59.754;10.110;2022-08-19T13:53:38;23.85;61.57
65291;SHT30;51893;59.754;10.110;2022-08-19T13:56:15;23.89;60.85
65291;SHT30;51893;59.754;10.110;2022-08-19T13:58:53;23.90;61.15
65291;SHT30;51893;59.754;10.110;2022-08-19T14:01:25;23.92;60.84
65291;SHT30;51893;59.754;10.110;2022-08-19T14:03:54;23.99;60.88
65291;SHT30;51893;59.754;10.110;2022-08-19T14:06:21;24.03;60.70
65291;SHT30;51893;59.754;10.110;2022-08-19T14:08:49;24.09;60.78
65291;SHT30;51893;59.754;10.110;2022-08-19T14:11:17;24.13;60.50
65291;SHT30;51893;59.754;10.110;2022-08-19T14:13:45;24.11;60.31
65291;SHT30;51893;59.754;10.110;2022-08-19T14:16:13;24.13;60.14
65291;SHT30;51893;59.754;10.110;2022-08-19T14:18:43;24.07;59.69
65291;SHT30;51893;59.754;10.110;2022-08-19T14:21:16;23.95;59.58
65291;SHT30;51893;59.754;10.110;2022-08-19T14:23:51;23.89;59.56
65291;SHT30;51893;59.754;10.110;2022-08-19T14:26:20;23.88;59.59
65291;SHT30;51893;59.754;10.110;2022-08-19T14:28:51;23.87;59.32
65291;SHT30;51893;59.754;10.110;2022-08-19T14:31:20;23.81;59.27
65291;SHT30;51893;59.754;10.110;2022-08-19T14:33:56;23.83;59.81
65291;SHT30;51893;59.754;10.110;2022-08-19T14:36:24;23.88;59.94
65291;SHT30;51893;59.754;10.110;2022-08-19T14:38:52;23.87;60.05
65291;SHT30;51893;59.754;10.110;2022-08-19T14:41:21;23.88;59.66
65291;SHT30;51893;59.754;10.110;2022-08-19T14:43:53;23.87;59.97
65291;SHT30;51893;59.754;10.110;2022-08-19T14:46:23;23.87;60.19
65291;SHT30;51893;59.754;10.110;2022-08-19T14:48:55;23.85;60.23
65291;SHT30;51893;59.754;10.110;2022-08-19T14:51:26;23.86;60.58
65291;SHT30;51893;59.754;10.110;2022-08-19T14:53:54;23.80;60.12
65291;SHT30;51893;59.754;10.110;2022-08-19T14:56:24;23.78;60.43
65291;SHT30;51893;59.754;10.110;2022-08-19T14:58:55;23.78;60.35
65291;SHT30;51893;59.754;10.110;2022-08-19T15:01:27;23.78;60.38
65291;SHT30;51893;59.754;10.110;2022-08-19T15:03:55;23.80;60.48
65291;SHT30;51893;59.754;10.110;2022-08-19T15:06:24;23.80;60.48
65291;SHT30;51893;59.754;10.110;2022-08-19T15:08:52;23.81;60.28
65291;SHT30;51893;59.754;10.110;2022-08-19T15:11:22;23.84;59.67
65291;SHT30;51893;59.754;10.110;2022-08-19T15:13:55;23.86;59.96
65291;SHT30;51893;59.754;10.110;2022-08-19T15:16:24;23.85;59.97
65291;SHT30;51893;59.754;10.110;2022-08-19T15:18:54;23.86;59.61
65291;SHT30;51893;59.754;10.110;2022-08-19T15:21:26;23.87;59.45
65291;SHT30;51893;59.754;10.110;2022-08-19T15:23:57;23.83;59.06
65291;SHT30;51893;59.754;10.110;2022-08-19T15:26:27;23.82;59.06
65291;SHT30;51893;59.754;10.110;2022-08-19T15:28:59;23.79;59.21
65291;SHT30;51893;59.754;10.110;2022-08-19T15:31:29;23.72;59.70
65291;SHT30;51893;59.754;10.110;2022-08-19T15:34:04;23.65;59.69
65291;SHT30;51893;59.754;10.110;2022-08-19T15:36:33;23.60;59.72
65291;SHT30;51893;59.754;10.110;2022-08-19T15:39:03;23.58;59.35
65291;SHT30;51893;59.754;10.110;2022-08-19T15:41:32;23.58;59.20
65291;SHT30;51893;59.754;10.110;2022-08-19T15:44:04;23.56;59.45
65291;SHT30;51893;59.754;10.110;2022-08-19T15:46:37;23.53;59.87
65291;SHT30;51893;59.754;10.110;2022-08-19T15:49:07;23.49;59.64
65291;SHT30;51893;59.754;10.110;2022-08-19T15:51:37;23.47;59.41
65291;SHT30;51893;59.754;10.110;2022-08-19T15:54:13;23.47;59.42
65291;SHT30;51893;59.754;10.110;2022-08-19T15:56:48;23.49;59.12
65291;SHT30;51893;59.754;10.110;2022-08-19T15:59:37;23.49;59.48
65291;SHT30;51893;59.754;10.110;2022-08-19T16:02:29;23.47;59.32